sensor_id;sensor_type;location;lat;lon;timestamp;pressure;altitude;pressure_sealevel;temperature;humidity
8627;BME280;4351;51.422;6.794;2022-09-25T00:01:56;99311.53;;;13.48;100.00
8627;BME280;4351;51.422;6.794;2022-09-25T00:04:25;99318.97;;;13.45;100.00
8627;BME280;4351;51.422;6.794;2022-09-25T00:06:54;99315.97;;;13.49;100.00
8627;BME280;4351;51.422;6.794;2022-09-25T00:09:22;99325.81;;;13.40;100.00
8627;BME280;4351;51.422;6.794;2022-09-25T00:11:50;99322.09;;;13.41;100.00
8627;BME280;4351;51.422;6.794;2022-09-25T00:14:19;99348.91;;;13.34;100.00
8627;BME280;4351;51.422;6.794;2022-09-25T00:16:47;99330.06;;;13.52;100.00
8627;BME280;4351;51.422;6.794;2022-09-25T00:19:20;99337.91;;;13.65;100.00
8627;BME280;4351;51.422;6.794;2022-09-25T00:22:07;99350.81;;;13.82;100.00
8627;BME280;4351;51.422;6.794;2022-09-25T00:24:35;99359.69;;;13.54;100.00
8627;BME280;4351;51.422;6.794;2022-09-25T00:27:03;99359.16;;;13.50;100.00
8627;BME280;4351;51.422;6.794;2022-09-25T00:29:35;99363.59;;;13.41;100.00
8627;BME280;4351;51.422;6.794;2022-09-25T00:32:05;99337.22;;;13.43;100.00
8627;BME280;4351;51.422;6.794;2022-09-25T00:34:33;99340.34;;;13.49;100.00
8627;BME280;4351;51.422;6.794;2022-09-25T00:37:02;99343.50;;;13.34;100.00
8627;BME280;4351;51.422;6.794;2022-09-25T00:39:32;99330.53;;;13.38;100.00
8627;BME280;4351;51.422;6.794;2022-09-25T00:42:00;99332.38;;;13.37;100.00
8627;BME280;4351;51.422;6.794;2022-09-25T00:44:53;99329.84;;;13.36;100.00
8627;BME280;4351;51.422;6.794;2022-09-25T00:47:27;99332.63;;;13.54;100.00
8627;BME280;4351;51.422;6.794;2022-09-25T00:49:58;99334.94;;;13.49;100.00
8627;BME280;4351;51.422;6.794;2022-09-25T00:52:28;99336.97;;;13.27;100.00
8627;BME280;4351;51.422;6.794;2022-09-25T00:55:02;99333.53;;;13.34;100.00
8627;BME280;4351;51.422;6.794;2022-09-25T00:57:32;99346.09;;;13.26;100.00
8627;BME280;4351;51.422;6.794;2022-09-25T01:00:07;99335.25;;;13.36;100.00
8627;BME280;4351;51.422;6.794;2022-09-25T01:02:38;99351.50;;;13.26;100.00
8627;BME280;4351;51.422;6.794;2022-09-25T01:05:10;99346.19;;;13.34;100.00
8627;BME280;4351;51.422;6.794;2022-09-25T01:07:42;99352.91;;;13.30;100.00
8627;BME280;4351;51.422;6.794;2022-09-25T01:10:14;99353.78;;;13.30;100.00
8627;BME280;4351;51.422;6.794;2022-09-25T01:12:44;99359.22;;;13.20;100.00
8627;BME280;4351;51.422;6.794;2022-09-25T01:15:15;99360.91;;;13.21;100.00
8627;BME280;4351;51.422;6.794;2022-09-25T01:17:54;99359.50;;;13.17;100.00
8627;BME280;4351;51.422;6.794;2022-09-25T01:20:49;99353.53;;;13.14;100.00
8627;BME280;4351;51.422;6.794;2022-09-25T01:23:33;99350.34;;;13.28;100.00
8627;BME280;4351;51.422;6.794;2022-09-25T01:26:19;99359.03;;;13.32;100.00
8627;BME280;4351;51.422;6.794;2022-09-25T01:29:00;99350.91;;;13.32;100.00
8627;BME280;4351;51.422;6.794;2022-09-25T01:31:40;99352.91;;;13.30;100.00
8627;BME280;4351;51.422;6.794;2022-09-25T01:34:13;99346.34;;;13.32;100.00
8627;BME280;4351;51.422;6.794;2022-09-25T01:36:47;99332.63;;;13.54;100.00
8627;BME280;4351;51.422;6.794;2022-09-25T01:39:20;99354.72;;;13.49;100.00
8627;BME280;4351;51.422;6.794;2022-09-25T01:41:53;99356.63;;;13.29;100.00
8627;BME280;4351;51.422;6.794;2022-09-25T01:44:27;99362.06;;;13.29;100.00
8627;BME280;4351;51.422;6.794;2022-09-25T01:46:58;99362.06;;;13.29;100.00
8627;BME280;4351;51.422;6.794;2022-09-25T01:49:32;99361.63;;;13.33;100.00
8627;BME280;4351;51.422;6.794;2022-09-25T01:52:06;99357.50;;;13.29;100.00
8627;BME280;4351;51.422;6.794;2022-09-25T01:54:41;99364.84;;;13.47;100.00
8627;BME280;4351;51.422;6.794;2022-09-25T01:57:16;99376.28;;;13.31;100.00
8627;BME280;4351;51.422;6.794;2022-09-25T01:59:52;99378.00;;;13.12;100.00
8627;BME280;4351;51.422;6.794;2022-09-25T02:02:26;99372.75;;;13.10;100.00
8627;BME280;4351;51.422;6.794;2022-09-25T02:04:57;99379.72;;;13.03;100.00
8627;BME280;4351;51.422;6.794;2022-09-25T02:07:30;99383.41;;;13.12;100.00
8627;BME280;4351;51.422;6.794;2022-09-25T02:10:05;99378.44;;;13.27;100.00
8627;BME280;4351;51.422;6.794;2022-09-25T02:12:38;99387.84;;;13.03;100.00
8627;BME280;4351;51.422;6.794;2022-09-25T02:15:11;99378.00;;;13.12;100.00
8627;BME280;4351;51.422;6.794;2022-09-25T02:17:46;99392.56;;;13.11;100.00
8627;BME280;4351;51.422;6.794;2022-09-25T02:20:34;99390.97;;;13.08;100.00
8627;BME280;4351;51.422;6.794;2022-09-25T02:23:14;99406.22;;;12.99;100.00
8627;BME280;4351;51.422;6.794;2022-09-25T02:25:48;99407.09;;;13.00;100.00
8627;BME280;4351;51.422;6.794;2022-09-25T02:28:21;99407.94;;;13.01;100.00
8627;BME280;4351;51.422;6.794;2022-09-25T02:30:53;99409.66;;;13.21;100.00
8627;BME280;4351;51.422;6.794;2022-09-25T02:33:24;99407.81;;;13.22;100.00
8627;BME280;4351;51.422;6.794;2022-09-25T02:35:53;99402.38;;;13.22;100.00
8627;BME280;4351;51.422;6.794;2022-09-25T02:38:21;99407.94;;;13.20;100.00
8627;BME280;4351;51.422;6.794;2022-09-25T02:40:53;99403.94;;;13.15;100.00
8627;BME280;4351;51.422;6.794;2022-09-25T02:43:31;99404.53;;;13.18;100.00
8627;BME280;4351;51.422;6.794;2022-09-25T02:46:10;99407.66;;;13.24;100.00
8627;BME280;4351;51.422;6.794;2022-09-25T02:48:47;99412.34;;;13.21;100.00
8627;BME280;4351;51.422;6.794;2022-09-25T02:51:22;99417.06;;;13.09;100.00
8627;BME280;4351;51.422;6.794;2022-09-25T02:53:57;99419.75;;;12.99;100.00
8627;BME280;4351;51.422;6.794;2022-09-25T02:56:33;99423.59;;;12.87;100.00
8627;BME280;4351;51.422;6.794;2022-09-25T02:59:06;99425.19;;;12.90;100.00
8627;BME280;4351;51.422;6.794;2022-09-25T03:01:37;99416.47;;;13.26;100.00
8627;BME280;4351;51.422;6.794;2022-09-25T03:04:09;99435.84;;;12.91;100.00
8627;BME280;4351;51.422;6.794;2022-09-25T03:06:39;99440.53;;;12.79;100.00
8627;BME280;4351;51.422;6.794;2022-09-25T03:09:09;99434.13;;;12.80;100.00
8627;BME280;4351;51.422;6.794;2022-09-25T03:11:38;99440.69;;;12.97;100.00
8627;BME280;4351;51.422;6.794;2022-09-25T03:14:07;99436.97;;;12.79;100.00
8627;BME280;4351;51.422;6.794;2022-09-25T03:16:40;99431.84;;;12.75;100.00
8627;BME280;4351;51.422;6.794;2022-09-25T03:19:09;99428.44;;;12.83;100.00
8627;BME280;4351;51.422;6.794;2022-09-25T03:21:37;99419.75;;;12.99;100.00
8627;BME280;4351;51.422;6.794;2022-09-25T03:24:06;99413.91;;;13.04;100.00
8627;BME280;4351;51.422;6.794;2022-09-25T03:26:34;99417.34;;;12.96;100.00
8627;BME280;4351;51.422;6.794;2022-09-25T03:29:02;99407.06;;;12.80;100.00
8627;BME280;4351;51.422;6.794;2022-09-25T03:31:30;99397.94;;;12.81;100.00
8627;BME280;4351;51.422;6.794;2022-09-25T03:34:01;99398.50;;;12.65;100.00
8627;BME280;4351;51.422;6.794;2022-09-25T03:36:30;99404.19;;;12.62;100.00
8627;BME280;4351;51.422;6.794;2022-09-25T03:38:59;99401.38;;;12.73;100.00
8627;BME280;4351;51.422;6.794;2022-09-25T03:41:30;99413.88;;;12.64;100.00
8627;BME280;4351;51.422;6.794;2022-09-25T03:43:59;99401.66;;;12.80;100.00
8627;BME280;4351;51.422;6.794;2022-09-25T03:46:28;99407.34;;;12.67;100.00
8627;BME280;4351;51.422;6.794;2022-09-25T03:48:57;99411.88;;;12.57;100.00
8627;BME280;4351;51.422;6.794;2022-09-25T03:51:28;99411.28;;;12.53;100.00
8627;BME280;4351;51.422;6.794;2022-09-25T03:53:57;99409.84;;;12.49;100.00
8627;BME280;4351;51.422;6.794;2022-09-25T03:56:27;99413.97;;;12.43;100.00
8627;BME280;4351;51.422;6.794;2022-09-25T03:58:56;99398.16;;;12.48;100.00
8627;BME280;4351;51.422;6.794;2022-09-25T04:01:25;99410.97;;;12.46;100.00
8627;BME280;4351;51.422;6.794;2022-09-25T04:03:54;99407.28;;;12.47;100.00
8627;BME280;4351;51.422;6.794;2022-09-25T04:06:24;99408.00;;;12.49;100.00
8627;BME280;4351;51.422;6.794;2022-09-25T04:08:54;99407.31;;;12.57;100.00
8627;BME280;4351;51.422;6.794;2022-09-25T04:11:23;99400.19;;;12.56;100.00
8627;BME280;4351;51.422;6.794;2022-09-25T04:13:52;99396.06;;;12.52;100.00
8627;BME280;4351;51.422;6.794;2022-09-25T04:16:20;99391.78;;;12.49;100.00
8627;BME280;4351;51.422;6.794;2022-09-25T04:18:48;99397.75;;;12.43;100.00
8627;BME280;4351;51.422;6.794;2022-09-25T04:21:17;99401.84;;;12.37;100.00
8627;BME280;4351;51.422;6.794;2022-09-25T04:23:45;99397.59;;;12.45;100.00
8627;BME280;4351;51.422;6.794;2022-09-25T04:26:34;99406.56;;;12.45;100.00
8627;BME280;4351;51.422;6.794;2022-09-25T04:29:02;99411.53;;;12.40;100.00
8627;BME280;4351;51.422;6.794;2022-09-25T04:31:31;99415.78;;;12.33;100.00
8627;BME280;4351;51.422;6.794;2022-09-25T04:33:59;99415.66;;;12.34;100.00
8627;BME280;4351;51.422;6.794;2022-09-25T04:36:27;99419.47;;;12.32;100.00
8627;BME280;4351;51.422;6.794;2022-09-25T04:38:55;99423.44;;;12.27;100.00
8627;BME280;4351;51.422;6.794;2022-09-25T04:41:23;99417.66;;;12.42;100.00
8627;BME280;4351;51.422;6.794;2022-09-25T04:43:52;99431.47;;;12.39;100.00
8627;BME280;4351;51.422;6.794;2022-09-25T04:46:23;99426.88;;;12.29;100.00
8627;BME280;4351;51.422;6.794;2022-09-25T04:48:51;99431.66;;;12.16;100.00
8627;BME280;4351;51.422;6.794;2022-09-25T04:51:22;99424.56;;;12.15;100.00
8627;BME280;4351;51.422;6.794;2022-09-25T04:53:50;99420.84;;;12.16;100.00
8627;BME280;4351;51.422;6.794;2022-09-25T04:56:18;99447.81;;;12.06;100.00
8627;BME280;4351;51.422;6.794;2022-09-25T04:58:48;99445.97;;;12.06;100.00
8627;BME280;4351;51.422;6.794;2022-09-25T05:01:19;99445.50;;;12.01;100.00
8627;BME280;4351;51.422;6.794;2022-09-25T05:03:47;99446.38;;;12.02;100.00
8627;BME280;4351;51.422;6.794;2022-09-25T05:06:19;99455.13;;;11.94;100.00
8627;BME280;4351;51.422;6.794;2022-09-25T05:08:48;99460.41;;;11.95;100.00
8627;BME280;4351;51.422;6.794;2022-09-25T05:11:16;99469.34;;;11.96;100.00
8627;BME280;4351;51.422;6.794;2022-09-25T05:13:48;99469.03;;;11.89;100.00
8627;BME280;4351;51.422;6.794;2022-09-25T05:16:18;99482.97;;;11.84;100.00
8627;BME280;4351;51.422;6.794;2022-09-25T05:18:46;99472.75;;;11.88;100.00
8627;BME280;4351;51.422;6.794;2022-09-25T05:21:14;99464.50;;;11.90;100.00
8627;BME280;4351;51.422;6.794;2022-09-25T05:23:43;99484.94;;;11.82;100.00
8627;BME280;4351;51.422;6.794;2022-09-25T05:26:11;99489.16;;;11.75;100.00
8627;BME280;4351;51.422;6.794;2022-09-25T05:28:39;99485.44;;;11.76;100.00
8627;BME280;4351;51.422;6.794;2022-09-25T05:31:07;99492.38;;;11.69;100.00
8627;BME280;4351;51.422;6.794;2022-09-25T05:33:37;99493.09;;;11.71;100.00
8627;BME280;4351;51.422;6.794;2022-09-25T05:36:07;99489.69;;;11.69;100.00
8627;BME280;4351;51.422;6.794;2022-09-25T05:38:36;99490.66;;;11.68;100.00
8627;BME280;4351;51.422;6.794;2022-09-25T05:41:07;99482.31;;;11.71;100.00
8627;BME280;4351;51.422;6.794;2022-09-25T05:43:38;99480.69;;;11.90;100.00
8627;BME280;4351;51.422;6.794;2022-09-25T05:46:07;99483.94;;;11.83;100.00
8627;BME280;4351;51.422;6.794;2022-09-25T05:48:38;99487.91;;;11.79;100.00
8627;BME280;4351;51.422;6.794;2022-09-25T05:51:06;99479.53;;;11.82;100.00
8627;BME280;4351;51.422;6.794;2022-09-25T05:53:34;99486.41;;;11.87;100.00
8627;BME280;4351;51.422;6.794;2022-09-25T05:56:04;99461.97;;;11.98;100.00
8627;BME280;4351;51.422;6.794;2022-09-25T05:58:33;99474.97;;;11.83;100.00
8627;BME280;4351;51.422;6.794;2022-09-25T06:01:03;99467.97;;;11.80;100.00
8627;BME280;4351;51.422;6.794;2022-09-25T06:03:32;99464.63;;;11.88;100.00
8627;BME280;4351;51.422;6.794;2022-09-25T06:06:01;99473.38;;;11.80;100.00
8627;BME280;4351;51.422;6.794;2022-09-25T06:08:29;99478.06;;;11.78;100.00
8627;BME280;4351;51.422;6.794;2022-09-25T06:10:58;99478.00;;;11.68;100.00
8627;BME280;4351;51.422;6.794;2022-09-25T06:13:28;99486.50;;;11.64;100.00
8627;BME280;4351;51.422;6.794;2022-09-25T06:15:57;99492.19;;;11.60;100.00
8627;BME280;4351;51.422;6.794;2022-09-25T06:18:26;99495.84;;;11.59;100.00
8627;BME280;4351;51.422;6.794;2022-09-25T06:20:59;99495.19;;;11.67;100.00
8627;BME280;4351;51.422;6.794;2022-09-25T06:23:29;99492.50;;;11.67;100.00
8627;BME280;4351;51.422;6.794;2022-09-25T06:26:01;99494.69;;;11.73;100.00
8627;BME280;4351;51.422;6.794;2022-09-25T06:28:30;99499.81;;;11.77;100.00
8627;BME280;4351;51.422;6.794;2022-09-25T06:30:59;99499.97;;;11.75;100.00
8627;BME280;4351;51.422;6.794;2022-09-25T06:33:30;99493.25;;;11.91;100.00
8627;BME280;4351;51.422;6.794;2022-09-25T06:35:59;99495.47;;;11.86;100.00
8627;BME280;4351;51.422;6.794;2022-09-25T06:38:29;99491.97;;;11.95;100.00
8627;BME280;4351;51.422;6.794;2022-09-25T06:40:59;99496.59;;;11.83;100.00
8627;BME280;4351;51.422;6.794;2022-09-25T06:43:29;99479.97;;;11.88;100.00
8627;BME280;4351;51.422;6.794;2022-09-25T06:46:01;99489.94;;;11.87;100.00
8627;BME280;4351;51.422;6.794;2022-09-25T06:48:30;99494.22;;;11.90;100.00
8627;BME280;4351;51.422;6.794;2022-09-25T06:50:59;99484.53;;;12.09;100.00
8627;BME280;4351;51.422;6.794;2022-09-25T06:53:29;99487.22;;;12.09;100.00
8627;BME280;4351;51.422;6.794;2022-09-25T06:55:58;99485.72;;;12.16;100.00
8627;BME280;4351;51.422;6.794;2022-09-25T06:58:27;99503.53;;;12.18;100.00
8627;BME280;4351;51.422;6.794;2022-09-25T07:00:56;99490.88;;;12.19;100.00
8627;BME280;4351;51.422;6.794;2022-09-25T07:03:25;99498.91;;;12.30;100.00
8627;BME280;4351;51.422;6.794;2022-09-25T07:06:12;99503.38;;;12.41;100.00
8627;BME280;4351;51.422;6.794;2022-09-25T07:08:42;99519.13;;;12.36;100.00
8627;BME280;4351;51.422;6.794;2022-09-25T07:11:13;99538.69;;;12.50;100.00
8627;BME280;4351;51.422;6.794;2022-09-25T07:13:42;99569.63;;;12.36;100.00
8627;BME280;4351;51.422;6.794;2022-09-25T07:16:12;99581.72;;;12.32;100.00
8627;BME280;4351;51.422;6.794;2022-09-25T07:18:40;99603.09;;;12.35;100.00
8627;BME280;4351;51.422;6.794;2022-09-25T07:21:10;99612.59;;;12.50;100.00
8627;BME280;4351;51.422;6.794;2022-09-25T07:23:39;99642.78;;;12.56;100.00
8627;BME280;4351;51.422;6.794;2022-09-25T07:26:11;99673.22;;;12.48;100.00
8627;BME280;4351;51.422;6.794;2022-09-25T07:28:42;99682.63;;;12.53;100.00
8627;BME280;4351;51.422;6.794;2022-09-25T07:31:16;99692.13;;;12.69;100.00
8627;BME280;4351;51.422;6.794;2022-09-25T07:33:51;99714.63;;;12.91;100.00
8627;BME280;4351;51.422;6.794;2022-09-25T07:36:20;99751.00;;;12.98;100.00
8627;BME280;4351;51.422;6.794;2022-09-25T07:41:43;99777.31;;;12.53;100.00
8627;BME280;4351;51.422;6.794;2022-09-25T07:44:14;99778.22;;;12.64;100.00
8627;BME280;4351;51.422;6.794;2022-09-25T07:47:34;99792.56;;;12.55;100.00
8627;BME280;4351;51.422;6.794;2022-09-25T07:58:46;99805.00;;;12.79;100.00
8627;BME280;4351;51.422;6.794;2022-09-25T08:05:56;99828.44;;;12.90;100.00
8627;BME280;4351;51.422;6.794;2022-09-25T08:08:25;99838.72;;;13.17;100.00
8627;BME280;4351;51.422;6.794;2022-09-25T08:10:57;99869.72;;;13.25;100.00
8627;BME280;4351;51.422;6.794;2022-09-25T08:13:26;99897.44;;;13.17;100.00
8627;BME280;4351;51.422;6.794;2022-09-25T08:16:00;99916.00;;;13.21;100.00
8627;BME280;4351;51.422;6.794;2022-09-25T08:18:29;99930.47;;;13.32;100.00
8627;BME280;4351;51.422;6.794;2022-09-25T08:21:00;99941.38;;;13.20;100.00
8627;BME280;4351;51.422;6.794;2022-09-25T08:23:28;99949.97;;;13.26;100.00
8627;BME280;4351;51.422;6.794;2022-09-25T08:25:57;99960.78;;;13.26;100.00
8627;BME280;4351;51.422;6.794;2022-09-25T08:28:25;99997.56;;;13.40;100.00
8627;BME280;4351;51.422;6.794;2022-09-25T08:31:00;100015.31;;;13.65;100.00
8627;BME280;4351;51.422;6.794;2022-09-25T08:33:33;100046.66;;;13.47;100.00
8627;BME280;4351;51.422;6.794;2022-09-25T08:36:03;100055.06;;;13.32;100.00
8627;BME280;4351;51.422;6.794;2022-09-25T08:38:32;100060.47;;;13.32;100.00
8627;BME280;4351;51.422;6.794;2022-09-25T08:41:03;100077.75;;;13.75;100.00
8627;BME280;4351;51.422;6.794;2022-09-25T08:43:39;100121.00;;;13.65;100.00
8627;BME280;4351;51.422;6.794;2022-09-25T08:46:16;100133.09;;;13.50;100.00
8627;BME280;4351;51.422;6.794;2022-09-25T08:49:03;100147.75;;;13.59;100.00
8627;BME280;4351;51.422;6.794;2022-09-25T08:51:35;100172.34;;;13.78;100.00
8627;BME280;4351;51.422;6.794;2022-09-25T08:54:05;100194.41;;;13.74;100.00
8627;BME280;4351;51.422;6.794;2022-09-25T08:56:34;100220.53;;;13.75;100.00
8627;BME280;4351;51.422;6.794;2022-09-25T08:59:09;100235.56;;;13.79;100.00
8627;BME280;4351;51.422;6.794;2022-09-25T09:01:50;100255.50;;;13.78;100.00
8627;BME280;4351;51.422;6.794;2022-09-25T09:04:27;100272.47;;;13.91;100.00
8627;BME280;4351;51.422;6.794;2022-09-25T09:07:03;100323.50;;;13.98;100.00
8627;BME280;4351;51.422;6.794;2022-09-25T09:09:56;100367.88;;;13.85;100.00
8627;BME280;4351;51.422;6.794;2022-09-25T09:12:33;100366.50;;;14.14;100.00
8627;BME280;4351;51.422;6.794;2022-09-25T09:15:14;100411.38;;;14.07;100.00
8627;BME280;4351;51.422;6.794;2022-09-25T09:17:44;100424.19;;;14.05;100.00
8627;BME280;4351;51.422;6.794;2022-09-25T09:20:15;100434.44;;;14.01;100.00
8627;BME280;4351;51.422;6.794;2022-09-25T09:22:47;100445.25;;;14.47;100.00
8627;BME280;4351;51.422;6.794;2022-09-25T09:25:27;100466.94;;;14.47;100.00
8627;BME280;4351;51.422;6.794;2022-09-25T09:28:19;100485.81;;;14.48;100.00
8627;BME280;4351;51.422;6.794;2022-09-25T09:30:57;100536.00;;;14.66;100.00
8627;BME280;4351;51.422;6.794;2022-09-25T09:33:41;100579.22;;;14.34;100.00
8627;BME280;4351;51.422;6.794;2022-09-25T09:36:20;100580.94;;;14.47;100.00
8627;BME280;4351;51.422;6.794;2022-09-25T09:38:59;100608.19;;;14.34;100.00
8627;BME280;4351;51.422;6.794;2022-09-25T09:41:43;100624.88;;;14.52;100.00
8627;BME280;4351;51.422;6.794;2022-09-25T09:44:22;100645.25;;;14.92;100.00
8627;BME280;4351;51.422;6.794;2022-09-25T09:47:01;100668.59;;;15.07;100.00
8627;BME280;4351;51.422;6.794;2022-09-25T09:49:38;100678.84;;;14.91;100.00
8627;BME280;4351;51.422;6.794;2022-09-25T09:52:12;100696.66;;;14.59;100.00
8627;BME280;4351;51.422;6.794;2022-09-25T09:54:47;100717.41;;;14.60;100.00
8627;BME280;4351;51.422;6.794;2022-09-25T09:57:18;100727.09;;;14.99;100.00
8627;BME280;4351;51.422;6.794;2022-09-25T09:59:52;100765.81;;;14.78;100.00
8627;BME280;4351;51.422;6.794;2022-09-25T10:02:29;100770.94;;;14.58;100.00
8627;BME280;4351;51.422;6.794;2022-09-25T10:05:05;100771.91;;;14.57;100.00
8627;BME280;4351;51.422;6.794;2022-09-25T10:07:36;100767.50;;;14.68;100.00
8627;BME280;4351;51.422;6.794;2022-09-25T10:10:11;100793.75;;;14.92;100.00
8627;BME280;4351;51.422;6.794;2022-09-25T10:12:43;100808.25;;;14.79;100.00
8627;BME280;4351;51.422;6.794;2022-09-25T10:15:20;100823.63;;;14.92;100.00
8627;BME280;4351;51.422;6.794;2022-09-25T10:17:52;100839.84;;;14.69;100.00
8627;BME280;4351;51.422;6.794;2022-09-25T10:20:23;100840.78;;;14.56;100.00
8627;BME280;4351;51.422;6.794;2022-09-25T10:22:54;100830.16;;;14.53;100.00
8627;BME280;4351;51.422;6.794;2022-09-25T10:25:38;100813.78;;;14.66;100.00
8627;BME280;4351;51.422;6.794;2022-09-25T10:28:25;100815.03;;;15.21;100.00
8627;BME280;4351;51.422;6.794;2022-09-25T10:30:54;100835.81;;;15.22;100.00
8627;BME280;4351;51.422;6.794;2022-09-25T10:33:25;100864.50;;;14.90;100.00
8627;BME280;4351;51.422;6.794;2022-09-25T10:35:55;100855.56;;;15.24;100.00
8627;BME280;4351;51.422;6.794;2022-09-25T10:38:31;100877.38;;;14.75;100.00
8627;BME280;4351;51.422;6.794;2022-09-25T10:41:10;100883.50;;;14.66;100.00
8627;BME280;4351;51.422;6.794;2022-09-25T10:43:50;100899.53;;;15.18;100.00
8627;BME280;4351;51.422;6.794;2022-09-25T10:46:30;100924.22;;;15.15;100.00
8627;BME280;4351;51.422;6.794;2022-09-25T10:49:18;100920.03;;;15.34;100.00
8627;BME280;4351;51.422;6.794;2022-09-25T10:52:06;100924.94;;;15.17;100.00
8627;BME280;4351;51.422;6.794;2022-09-25T10:54:35;100932.06;;;15.54;100.00
8627;BME280;4351;51.422;6.794;2022-09-25T10:57:15;100950.56;;;15.26;100.00
8627;BME280;4351;51.422;6.794;2022-09-25T10:59:50;100942.94;;;15.54;100.00
8627;BME280;4351;51.422;6.794;2022-09-25T11:02:27;100956.13;;;15.36;100.00
8627;BME280;4351;51.422;6.794;2022-09-25T11:04:57;100960.41;;;15.15;100.00
8627;BME280;4351;51.422;6.794;2022-09-25T11:07:27;100960.63;;;15.12;100.00
8627;BME280;4351;51.422;6.794;2022-09-25T11:09:55;100952.50;;;14.88;100.00
8627;BME280;4351;51.422;6.794;2022-09-25T11:12:26;100942.31;;;14.78;100.00
8627;BME280;4351;51.422;6.794;2022-09-25T11:14:58;100953.75;;;15.20;100.00
8627;BME280;4351;51.422;6.794;2022-09-25T11:17:31;100955.75;;;15.40;100.00
8627;BME280;4351;51.422;6.794;2022-09-25T11:20:11;100965.09;;;15.25;100.00
8627;BME280;4351;51.422;6.794;2022-09-25T11:22:47;100956.41;;;15.56;100.00
8627;BME280;4351;51.422;6.794;2022-09-25T11:25:20;100969.69;;;15.24;100.00
8627;BME280;4351;51.422;6.794;2022-09-25T11:27:56;100967.38;;;15.43;100.00
8627;BME280;4351;51.422;6.794;2022-09-25T11:30:38;100975.84;;;15.15;100.00
8627;BME280;4351;51.422;6.794;2022-09-25T11:33:14;100977.31;;;15.55;100.00
8627;BME280;4351;51.422;6.794;2022-09-25T11:35:47;100984.03;;;15.26;100.00
8627;BME280;4351;51.422;6.794;2022-09-25T11:38:27;100983.75;;;15.18;100.00
8627;BME280;4351;51.422;6.794;2022-09-25T11:41:20;100982.16;;;15.74;100.00
8627;BME280;4351;51.422;6.794;2022-09-25T11:44:12;100994.28;;;15.70;100.00
8627;BME280;4351;51.422;6.794;2022-09-25T11:46:48;100987.97;;;15.22;100.00
8627;BME280;4351;51.422;6.794;2022-09-25T11:49:21;100984.09;;;15.49;100.00
8627;BME280;4351;51.422;6.794;2022-09-25T11:57:54;101005.66;;;15.75;100.00
8627;BME280;4351;51.422;6.794;2022-09-25T12:00:31;101000.25;;;15.98;100.00
8627;BME280;4351;51.422;6.794;2022-09-25T12:03:22;101000.75;;;15.92;100.00
8627;BME280;4351;51.422;6.794;2022-09-25T12:06:16;101012.28;;;16.19;100.00
8627;BME280;4351;51.422;6.794;2022-09-25T12:08:57;101029.97;;;16.36;100.00
8627;BME280;4351;51.422;6.794;2022-09-25T12:11:33;101024.13;;;16.52;100.00
8627;BME280;4351;51.422;6.794;2022-09-25T12:14:18;101019.41;;;16.77;100.00
8627;BME280;4351;51.422;6.794;2022-09-25T12:16:53;101027.94;;;16.73;100.00
8627;BME280;4351;51.422;6.794;2022-09-25T12:19:31;101021.03;;;16.46;100.00
8627;BME280;4351;51.422;6.794;2022-09-25T12:22:07;101021.53;;;16.28;100.00
8627;BME280;4351;51.422;6.794;2022-09-25T12:24:50;101007.41;;;16.00;100.00
8627;BME280;4351;51.422;6.794;2022-09-25T12:27:30;101021.72;;;15.79;100.00
8627;BME280;4351;51.422;6.794;2022-09-25T12:30:16;101014.16;;;15.71;100.00
8627;BME280;4351;51.422;6.794;2022-09-25T12:33:00;101004.06;;;15.84;100.00
8627;BME280;4351;51.422;6.794;2022-09-25T12:35:43;101003.72;;;16.35;100.00
8627;BME280;4351;51.422;6.794;2022-09-25T12:38:22;100991.56;;;16.62;100.00
8627;BME280;4351;51.422;6.794;2022-09-25T12:41:01;101001.44;;;16.75;100.00
8627;BME280;4351;51.422;6.794;2022-09-25T12:43:44;100993.63;;;16.82;100.00
8627;BME280;4351;51.422;6.794;2022-09-25T12:46:27;100989.84;;;16.61;100.00
8627;BME280;4351;51.422;6.794;2022-09-25T12:49:03;100996.06;;;16.29;100.00
8627;BME280;4351;51.422;6.794;2022-09-25T12:51:38;100984.81;;;16.34;100.00
8627;BME280;4351;51.422;6.794;2022-09-25T12:54:14;100985.53;;;16.01;100.00
8627;BME280;4351;51.422;6.794;2022-09-25T12:56:59;100991.59;;;16.39;100.00
8627;BME280;4351;51.422;6.794;2022-09-25T12:59:36;100981.19;;;15.87;100.00
8627;BME280;4351;51.422;6.794;2022-09-25T13:02:17;100987.34;;;15.66;100.00
8627;BME280;4351;51.422;6.794;2022-09-25T13:04:58;100991.31;;;15.85;100.00
8627;BME280;4351;51.422;6.794;2022-09-25T13:07:37;100985.66;;;15.88;100.00
8627;BME280;4351;51.422;6.794;2022-09-25T13:10:22;100991.88;;;16.36;100.00
8627;BME280;4351;51.422;6.794;2022-09-25T13:12:55;100979.75;;;16.29;100.00
8627;BME280;4351;51.422;6.794;2022-09-25T13:15:30;100975.53;;;16.36;100.00
8627;BME280;4351;51.422;6.794;2022-09-25T13:17:59;100972.44;;;15.95;100.00
8627;BME280;4351;51.422;6.794;2022-09-25T13:20:46;100966.13;;;15.94;100.00
8627;BME280;4351;51.422;6.794;2022-09-25T13:23:24;100968.81;;;15.83;100.00
8627;BME280;4351;51.422;6.794;2022-09-25T13:25:55;100963.88;;;16.00;100.00
8627;BME280;4351;51.422;6.794;2022-09-25T13:28:29;100962.16;;;16.22;100.00
8627;BME280;4351;51.422;6.794;2022-09-25T13:31:05;100967.38;;;16.25;100.00
8627;BME280;4351;51.422;6.794;2022-09-25T13:33:47;100961.66;;;15.93;100.00
8627;BME280;4351;51.422;6.794;2022-09-25T13:36:36;100961.03;;;15.90;100.00
8627;BME280;4351;51.422;6.794;2022-09-25T13:39:16;100958.22;;;16.03;100.00
8627;BME280;4351;51.422;6.794;2022-09-25T13:42:05;100946.84;;;16.32;100.00
8627;BME280;4351;51.422;6.794;2022-09-25T13:44:56;100946.53;;;16.58;100.00
8627;BME280;4351;51.422;6.794;2022-09-25T13:47:50;100939.16;;;16.82;100.00
8627;BME280;4351;51.422;6.794;2022-09-25T13:50:37;100947.47;;;16.80;100.00
8627;BME280;4351;51.422;6.794;2022-09-25T13:53:26;100946.97;;;16.75;100.00
8627;BME280;4351;51.422;6.794;2022-09-25T13:56:23;100937.13;;;16.62;100.00
8627;BME280;4351;51.422;6.794;2022-09-25T13:59:24;100942.19;;;16.55;100.00
8627;BME280;4351;51.422;6.794;2022-09-25T14:05:05;100946.19;;;16.84;100.00
8627;BME280;4351;51.422;6.794;2022-09-25T14:07:34;100938.47;;;16.89;100.00
8627;BME280;4351;51.422;6.794;2022-09-25T14:10:07;100934.03;;;17.43;100.00